createdAt,value
2019-04-26T02:35:08.345Z,0.00
2019-04-26T02:36:08.110Z,0.00
2019-04-26T06:29:36.949Z,1310.63
2019-04-26T06:30:44.987Z,1794.38
2019-04-26T06:31:34.276Z,1726.88
2019-04-26T06:32:34.315Z,1490.63
2019-04-26T06:33:34.258Z,905.63
2019-04-26T06:34:37.026Z,1051.88
2019-04-26T06:37:59.773Z,950.63
2019-04-26T06:39:41.601Z,1822.50
2019-04-26T06:40:42.078Z,1580.63
2019-04-26T06:41:41.333Z,961.88
2019-04-26T06:42:41.314Z,961.88
2019-04-26T06:43:41.295Z,1237.50
2019-04-26T06:44:41.261Z,1434.38
2019-04-26T06:45:41.239Z,1282.50
2019-04-26T06:46:41.214Z,1805.63
2019-04-26T06:47:41.199Z,1141.88
2019-04-26T06:48:41.171Z,703.13
2019-04-26T06:49:41.152Z,1192.50
2019-04-26T06:50:41.123Z,1423.13
2019-04-26T06:51:41.104Z,1518.75
2019-04-26T06:52:41.078Z,1411.88
2019-04-26T06:53:41.058Z,1355.63
2019-04-26T06:54:41.031Z,1282.50
2019-04-26T06:55:41.217Z,1243.13
2019-04-26T06:56:40.988Z,1175.63
2019-04-26T06:57:40.964Z,1130.63
2019-04-26T06:58:40.942Z,1113.75
2019-04-26T06:59:41.122Z,1046.25
2019-04-26T07:00:41.110Z,1029.38
2019-04-26T07:01:41.079Z,1074.38
2019-04-26T07:02:40.852Z,1248.75
2019-04-26T07:03:40.830Z,1552.50
2019-04-26T07:04:40.858Z,1828.13
2019-04-26T07:05:40.989Z,1957.50
2019-04-26T07:06:40.763Z,2053.13
2019-04-26T07:07:40.741Z,2047.50
2019-04-26T07:08:40.719Z,2070.00
2019-04-26T07:10:23.293Z,2047.50
2019-04-26T07:11:23.069Z,1980.00
2019-04-26T07:12:23.044Z,1974.38
2019-04-26T07:13:23.025Z,2047.50
2019-04-26T07:14:23.000Z,2154.38
2019-04-26T07:15:28.759Z,2227.50
2019-04-26T07:20:37.523Z,2497.50
2019-04-26T07:28:41.448Z,2244.38
2019-04-26T07:29:41.215Z,2205.00
2019-04-26T07:31:23.789Z,2182.50
2019-04-26T07:32:23.565Z,2143.13
2019-04-26T07:35:48.312Z,2261.25
2019-04-26T07:36:48.291Z,2086.88
2019-04-26T07:37:48.478Z,2036.25
2019-04-26T07:38:48.250Z,2120.63
2019-04-26T07:39:48.230Z,2238.75
2019-04-26T07:40:48.210Z,2238.75
2019-04-26T07:41:48.393Z,2334.38
2019-04-26T07:42:48.174Z,2351.25
2019-04-26T07:43:48.150Z,2356.88
2019-04-26T07:44:48.137Z,2430.00
2019-04-26T07:45:52.147Z,2334.38
2019-04-26T07:46:48.295Z,2418.75
2019-04-26T07:47:48.068Z,2407.50
2019-04-26T07:48:48.054Z,2413.13
2019-04-26T07:49:48.030Z,2390.63
2019-04-26T07:50:48.008Z,2396.25
2019-04-26T07:52:30.587Z,2430.00
2019-04-26T07:53:30.567Z,2469.38
2019-04-26T07:54:30.345Z,2536.88
2019-04-26T07:55:30.324Z,2536.88
2019-04-26T07:56:30.303Z,2587.50
2019-04-26T07:58:13.175Z,2525.63
2019-04-26T08:02:45.043Z,2407.50
2019-04-26T08:03:44.618Z,2311.88
2019-04-26T08:04:44.607Z,1935.00
2019-04-26T08:05:44.785Z,2351.25
2019-04-26T08:06:44.557Z,2407.50
2019-04-26T08:07:44.539Z,2356.88
2019-04-26T08:08:44.524Z,2356.88
2019-04-26T08:09:46.190Z,2413.13
2019-04-26T08:10:44.489Z,2368.13
2019-04-26T08:11:44.461Z,2413.13
2019-04-26T08:12:44.643Z,2441.25
2019-04-26T08:23:41.717Z,2480.63
2019-04-26T08:24:37.937Z,2435.63
2019-04-26T08:25:37.917Z,2452.50
2019-04-26T08:26:37.900Z,2317.50
2019-04-26T08:28:20.478Z,2396.25
2019-04-26T08:29:20.264Z,2385.00
2019-04-26T08:53:39.479Z,1901.25
2019-04-26T08:54:39.256Z,2120.63
2019-04-26T08:55:39.248Z,2075.63
2019-04-26T08:56:39.222Z,2244.38
2019-04-26T08:57:39.197Z,2626.88
2019-04-26T08:58:39.177Z,2587.50
2019-04-26T09:06:43.319Z,2975.63
2019-04-26T09:07:43.308Z,3133.13
2019-04-26T09:08:43.814Z,3121.88
2019-04-26T09:09:43.261Z,3138.75
2019-04-26T09:10:44.267Z,3093.75
2019-04-26T09:11:43.227Z,2964.38
2019-04-26T09:12:43.211Z,3043.13
2019-04-26T10:03:53.292Z,1445.63
2019-04-26T10:04:53.280Z,3099.38
2019-04-26T10:05:55.841Z,3791.25
2019-04-26T10:06:53.027Z,3448.13
2019-04-26T10:07:53.007Z,2047.50
2019-04-26T10:30:08.902Z,1181.25
2019-04-26T10:31:05.836Z,1288.13
2019-04-26T10:32:07.628Z,1434.38
2019-04-26T10:35:56.601Z,1215.00
2019-04-26T10:38:23.582Z,1057.50
2019-04-26T10:39:19.304Z,1074.38
2019-04-26T10:41:44.067Z,916.88
2019-04-26T10:42:43.843Z,978.75
2019-04-26T10:45:10.499Z,911.25
2019-04-26T10:46:08.584Z,900.00
2019-04-26T10:47:08.564Z,905.63
2019-04-26T10:48:09.702Z,843.75
2019-04-26T10:49:11.902Z,804.38
2019-04-26T10:50:08.695Z,843.75
2019-04-26T10:51:51.073Z,1051.88
2019-04-26T10:52:54.585Z,1175.63
2019-04-26T10:53:50.820Z,1276.88
2019-04-26T10:54:50.796Z,1395.00
2019-04-26T10:55:51.538Z,1546.88
2019-04-26T10:56:50.750Z,1873.13
2019-04-26T10:57:50.729Z,2986.88
2019-04-26T10:58:50.703Z,1546.88
2019-04-26T10:59:50.703Z,1485.00
2019-04-26T11:00:52.616Z,1338.75
2019-04-26T11:01:50.642Z,1136.25
2019-04-26T11:02:50.615Z,1035.00
2019-04-26T11:03:50.601Z,905.63
2019-04-26T11:04:50.572Z,815.63
2019-04-26T11:05:53.794Z,731.25
2019-04-26T11:06:50.529Z,630.00
2019-04-26T11:07:53.297Z,601.88
2019-04-26T11:08:50.486Z,596.25
2019-04-26T11:09:50.463Z,556.88
2019-04-26T11:10:50.489Z,551.25
2019-04-26T11:11:50.420Z,585.00
2019-04-26T11:12:50.403Z,641.25
2019-04-26T11:13:50.377Z,736.88
2019-04-26T11:14:53.201Z,883.13
2019-04-26T11:15:50.530Z,1012.50
2019-04-26T11:16:50.306Z,1102.50
2019-04-26T11:17:51.092Z,1068.75
2019-04-26T11:18:50.261Z,1006.88
2019-04-26T11:19:50.241Z,939.38
2019-04-26T11:20:50.215Z,860.63
2019-04-26T11:21:51.087Z,759.38
2019-04-26T11:22:50.378Z,697.50
2019-04-26T11:23:50.175Z,630.00
2019-04-26T11:24:53.711Z,590.63
2019-04-26T11:25:50.303Z,590.63
2019-04-26T11:26:50.083Z,652.50
2019-04-26T11:27:50.257Z,748.13
2019-04-26T11:28:51.314Z,832.50
2019-04-26T11:29:53.727Z,860.63
2019-04-26T11:30:52.067Z,838.13
2019-04-26T11:31:49.964Z,815.63
2019-04-26T11:32:49.939Z,871.88
2019-04-26T11:33:50.673Z,956.25
2019-04-26T11:34:50.094Z,1051.88
2019-04-26T11:35:49.869Z,1226.25
2019-04-26T11:36:49.872Z,1395.00
2019-04-26T11:38:49.801Z,1586.25
2019-04-26T11:39:49.803Z,1485.00
2019-04-26T11:40:14.104Z,1535.63
2019-04-26T11:40:58.434Z,1440.00
2019-04-26T11:41:49.731Z,1434.38
2019-04-26T11:42:49.714Z,1411.88
2019-04-26T11:43:52.901Z,1366.88
2019-04-26T11:44:49.663Z,1350.00
2019-04-26T11:45:50.496Z,1383.75
2019-04-26T11:46:49.612Z,1389.38
2019-04-26T11:47:56.139Z,1456.88
2019-04-26T11:48:58.524Z,1631.25
2019-04-26T11:49:50.075Z,1861.88
2019-04-26T11:50:52.175Z,1743.75
2019-04-26T11:51:49.499Z,1603.13
2019-04-26T11:52:49.477Z,1485.00
2019-04-26T11:53:49.455Z,1355.63
2019-04-26T11:54:51.257Z,1231.88
2019-04-26T11:55:49.408Z,1220.63
2019-04-26T11:56:50.475Z,1361.25
2019-04-26T11:57:49.373Z,1569.38
2019-04-26T11:58:52.445Z,1687.50
2019-04-26T11:59:49.324Z,1653.75
2019-04-26T12:00:49.297Z,1665.00
2019-04-26T12:01:49.283Z,1456.88
2019-04-26T12:02:50.734Z,1417.50
2019-04-26T12:03:51.551Z,1451.25
2019-04-26T12:04:49.717Z,1563.75
2019-04-26T12:05:49.185Z,1665.00
2019-04-26T12:06:49.161Z,1755.00
2019-04-26T12:07:49.140Z,1777.50
2019-04-26T12:08:49.117Z,1884.38
2019-04-26T12:09:49.093Z,1991.25
2019-04-26T12:10:49.072Z,1980.00
2019-04-26T12:11:57.982Z,1985.63
2019-04-26T12:12:51.839Z,2013.75
2019-04-26T12:13:49.208Z,1991.25
2019-04-26T12:14:48.982Z,2092.50
2019-04-26T12:15:48.964Z,1946.25
2019-04-26T12:16:51.505Z,2041.88
2019-04-26T12:17:58.286Z,2103.75
2019-04-26T12:18:48.897Z,1771.88
2019-04-26T12:19:52.185Z,1513.13
2019-04-26T12:20:48.852Z,1625.63
2019-04-26T12:21:48.832Z,1738.13
2019-04-26T12:22:48.809Z,1383.75
2019-04-26T12:23:51.338Z,1479.38
2019-04-26T12:24:48.778Z,1552.50
2019-04-26T12:25:48.780Z,1417.50
2019-04-26T12:26:51.981Z,1215.00
2019-04-26T12:27:49.045Z,1080.00
2019-04-26T12:28:48.682Z,978.75
2019-04-26T12:29:49.809Z,900.00
2019-04-26T12:30:48.637Z,855.00
2019-04-26T12:31:48.617Z,826.88
2019-04-26T12:32:50.052Z,871.88
2019-04-26T12:33:48.573Z,961.88
2019-04-26T12:34:48.553Z,1023.75
2019-04-26T12:35:56.546Z,1001.25
2019-04-26T12:36:48.512Z,956.25
2019-04-26T12:37:50.703Z,990.00
2019-04-26T12:38:48.464Z,1096.88
2019-04-26T12:39:48.443Z,1203.75
2019-04-26T12:40:48.423Z,1254.38
2019-04-26T12:41:48.401Z,1276.88
2019-04-26T12:42:48.483Z,1305.00
2019-04-26T12:43:48.356Z,1254.38
2019-04-26T12:44:48.331Z,1153.13
2019-04-26T12:45:51.440Z,1046.25
2019-04-26T12:46:50.647Z,961.88
2019-04-26T12:47:48.772Z,855.00
2019-04-26T12:48:49.919Z,770.63
2019-04-26T12:49:48.219Z,703.13
2019-04-26T12:50:48.196Z,675.00
2019-04-26T12:51:48.876Z,686.25
2019-04-26T12:52:51.366Z,736.88
2019-04-26T12:53:48.129Z,776.25
2019-04-26T12:54:48.308Z,821.25
2019-04-26T12:55:49.258Z,877.50
2019-04-26T12:56:48.061Z,928.13
2019-04-26T12:57:48.047Z,922.50
2019-04-26T12:58:50.018Z,871.88
2019-04-26T12:59:48.194Z,810.00
2019-04-26T13:00:54.362Z,765.00
2019-04-26T13:01:48.154Z,736.88
2019-04-26T13:02:50.145Z,708.75
2019-04-26T13:03:48.100Z,669.38
2019-04-26T13:04:48.077Z,630.00
2019-04-26T13:05:49.765Z,590.63
2019-04-26T13:06:48.031Z,556.88
2019-04-26T13:07:48.009Z,511.88
2019-04-26T13:09:30.378Z,427.50
2019-04-26T13:11:56.615Z,393.75
2019-04-26T13:12:55.118Z,399.38
2019-04-26T13:13:55.092Z,399.38
2019-04-26T13:14:55.068Z,399.38
2019-04-26T13:19:28.010Z,517.50
2019-04-26T13:20:28.767Z,511.88
2019-04-26T13:21:26.750Z,506.25
2019-04-26T13:23:51.713Z,472.50
2019-04-26T13:31:13.200Z,405.00
2019-04-26T13:33:37.953Z,365.63
2019-04-26T13:34:38.365Z,360.00
2019-04-26T13:35:41.278Z,365.63
2019-04-26T13:36:37.673Z,371.25
2019-04-26T13:37:37.650Z,371.25
2019-04-26T13:38:39.316Z,365.63
2019-04-26T13:39:37.598Z,360.00
2019-04-26T13:40:40.194Z,348.75
2019-04-26T13:41:38.717Z,343.13
2019-04-26T13:42:37.529Z,337.50
2019-04-26T13:43:37.499Z,331.88
2019-04-26T13:44:39.407Z,337.50
2019-04-26T13:45:37.444Z,354.38
2019-04-26T13:46:37.420Z,365.63
2019-04-26T13:47:37.397Z,354.38
2019-04-26T13:48:39.161Z,337.50
2019-04-26T13:49:37.345Z,326.25
2019-04-26T13:50:37.321Z,326.25
2019-04-26T13:51:37.296Z,320.63
2019-04-26T13:53:22.191Z,315.00
2019-04-26T15:16:59.495Z,995.63
2019-04-26T15:18:00.445Z,826.88
2019-04-26T15:18:59.243Z,832.50
2019-04-26T15:19:59.221Z,945.00
2019-04-26T15:20:59.195Z,939.38
2019-04-26T15:21:59.171Z,1023.75
2019-04-26T15:22:59.152Z,1192.50
2019-04-26T15:24:00.322Z,1608.75
2019-04-26T15:24:59.101Z,1704.38
2019-04-26T15:25:59.086Z,1175.63
2019-04-26T15:27:01.833Z,866.25
2019-04-26T15:27:59.034Z,720.00
2019-04-26T15:28:59.008Z,703.13
2019-04-26T15:30:01.581Z,714.38
2019-04-26T15:30:58.963Z,697.50
2019-04-26T15:31:58.934Z,652.50
2019-04-26T15:32:58.920Z,624.38
2019-04-26T15:33:58.889Z,590.63
2019-04-26T15:35:00.036Z,585.00
2019-04-26T15:35:58.840Z,590.63
2019-04-26T15:52:34.098Z,573.75
2019-04-26T15:53:33.065Z,556.88
2019-04-26T15:54:32.402Z,540.00
2019-04-26T15:55:33.800Z,534.38
2019-04-26T17:09:17.611Z,151.88
2019-04-26T17:10:20.787Z,140.63
2019-04-26T17:11:17.544Z,135.00
2019-04-26T17:12:17.517Z,129.38
2019-04-26T17:13:17.286Z,123.75
2019-04-26T17:14:17.259Z,112.50
2019-04-26T17:15:17.461Z,101.25
2019-04-26T17:16:17.203Z,95.63
2019-04-26T17:17:17.178Z,95.63
2019-04-26T17:18:19.297Z,95.63
2019-04-26T17:19:19.760Z,90.00
2019-04-26T17:20:17.103Z,84.38
2019-04-26T17:21:17.733Z,84.38
2019-04-26T17:22:17.042Z,84.38
2019-04-26T17:23:17.021Z,90.00
2019-04-26T17:24:16.987Z,90.00
2019-04-26T17:25:23.735Z,90.00
2019-04-26T17:26:16.936Z,90.00
2019-04-26T17:27:16.907Z,90.00
2019-04-26T17:28:17.895Z,90.00
2019-04-26T17:29:16.853Z,95.63
2019-04-26T17:30:16.833Z,95.63
2019-04-26T17:31:16.801Z,101.25
2019-04-26T17:32:17.467Z,101.25
2019-04-26T17:33:16.747Z,106.88
2019-04-26T17:34:16.740Z,101.25
2019-04-26T17:35:16.696Z,101.25
2019-04-26T17:36:17.294Z,95.63
2019-04-26T17:37:17.384Z,90.00
2019-04-26T17:38:16.611Z,84.38
2019-04-26T17:39:18.264Z,84.38
2019-04-26T17:40:16.556Z,78.75
2019-04-26T17:41:16.532Z,67.50
2019-04-26T17:42:16.503Z,61.88
2019-04-26T17:43:16.477Z,50.63
2019-04-26T17:45:03.886Z,45.00
2019-04-26T17:47:23.790Z,39.38
2019-04-26T17:48:23.764Z,39.38
2019-04-26T17:49:27.156Z,39.38
2019-04-26T17:54:47.497Z,28.13
2019-04-26T18:10:28.157Z,22.50
2019-04-26T18:11:27.932Z,22.50
2019-04-26T18:12:27.897Z,22.50
2019-04-26T18:13:27.869Z,16.88
2019-04-26T18:14:30.328Z,16.88
2019-04-26T18:15:27.811Z,16.88
2019-04-26T18:16:29.697Z,11.25
2019-04-26T18:17:27.757Z,11.25
2019-04-26T18:18:27.730Z,11.25
2019-04-26T18:19:30.441Z,16.88
2019-04-26T18:20:27.671Z,16.88
2019-04-26T18:21:27.642Z,16.88
2019-04-26T18:22:28.343Z,11.25
2019-04-26T18:23:30.318Z,11.25
2019-04-26T18:24:31.787Z,11.25
2019-04-26T18:25:27.531Z,5.63
2019-04-26T18:26:27.508Z,5.63
2019-04-26T18:27:29.946Z,5.63
2019-04-26T18:28:27.452Z,5.63
2019-04-26T18:29:29.442Z,5.63
2019-04-26T18:30:27.395Z,5.63
2019-04-26T18:31:28.759Z,5.63
2019-04-26T18:32:27.338Z,5.63
2019-04-26T18:33:27.308Z,5.63
2019-04-26T18:34:30.505Z,5.63
2019-04-26T18:35:27.254Z,0.00
2019-04-26T18:36:27.643Z,0.00
2019-04-26T18:37:27.197Z,0.00
2019-04-26T18:38:27.171Z,0.00
2019-04-26T18:39:29.604Z,0.00
2019-04-26T18:40:27.116Z,0.00
2019-04-26T18:41:28.858Z,0.00
2019-04-26T18:42:27.127Z,0.00
2019-04-26T18:43:27.035Z,0.00
2019-04-26T18:44:36.238Z,0.00
2019-04-26T18:45:29.704Z,0.00
2019-04-26T18:46:26.948Z,0.00
2019-04-26T18:47:28.321Z,0.00
2019-04-26T18:48:27.096Z,0.00
2019-04-26T18:49:27.229Z,0.00
2019-04-26T18:50:28.478Z,0.00
2019-04-26T18:51:26.813Z,0.00
2019-04-26T18:52:26.784Z,0.00
2019-04-26T18:53:30.577Z,0.00
2019-04-26T18:54:26.777Z,0.00
2019-04-26T18:55:30.101Z,0.00
2019-04-26T18:56:26.674Z,0.00
2019-04-26T18:57:26.844Z,0.00
2019-04-26T18:58:30.307Z,0.00
2019-04-26T18:59:27.937Z,0.00
2019-04-26T19:00:29.001Z,0.00
2019-04-26T19:01:26.736Z,0.00
2019-04-26T19:02:26.505Z,0.00
2019-04-26T19:03:30.164Z,0.00
2019-04-26T19:04:26.652Z,0.00
2019-04-26T19:05:29.762Z,0.00
2019-04-26T19:06:31.574Z,0.00
2019-04-26T19:07:32.375Z,0.00
2019-04-26T19:08:27.241Z,0.00
2019-04-26T19:09:26.309Z,0.00
2019-04-26T19:10:29.485Z,0.00
2019-04-26T19:11:26.463Z,0.00
2019-04-26T19:12:27.113Z,0.00
2019-04-26T19:13:26.219Z,0.00
2019-04-26T19:14:26.370Z,0.00
2019-04-26T19:15:26.141Z,0.00
2019-04-26T19:16:26.316Z,0.00
2019-04-26T19:17:30.111Z,0.00
2019-04-26T19:18:26.060Z,0.00
2019-04-26T19:19:26.150Z,0.00
2019-04-26T19:20:26.203Z,0.00
2019-04-26T19:21:25.977Z,0.00
2019-04-26T19:22:25.945Z,0.00
2019-04-26T19:23:29.078Z,0.00
2019-04-26T19:24:25.893Z,0.00
2019-04-26T19:25:29.940Z,0.00
2019-04-26T19:26:33.064Z,0.00
2019-04-26T19:27:26.746Z,0.00
2019-04-26T19:28:25.778Z,0.00
2019-04-26T19:29:31.372Z,0.00
2019-04-26T19:30:25.741Z,0.00
2019-04-26T19:31:27.121Z,0.00
2019-04-26T19:32:25.668Z,0.00
2019-04-26T19:33:25.651Z,0.00
2019-04-26T19:34:26.020Z,0.00
2019-04-26T19:35:25.584Z,0.00
2019-04-26T19:36:27.839Z,0.00
2019-04-26T19:37:25.528Z,0.00
2019-04-26T19:38:25.499Z,0.00
2019-04-26T19:39:31.982Z,0.00
2019-04-26T19:40:27.373Z,0.00
2019-04-26T19:41:27.224Z,0.00
2019-04-26T19:42:27.051Z,0.00
2019-04-26T19:43:31.136Z,0.00
2019-04-26T19:44:25.355Z,0.00
2019-04-26T19:45:25.306Z,0.00
2019-04-26T19:46:25.445Z,0.00
2019-04-26T19:47:25.250Z,0.00
2019-04-26T19:48:26.044Z,0.00
2019-04-26T19:49:25.753Z,0.00
2019-04-26T19:50:25.167Z,0.00
2019-04-26T19:51:27.084Z,0.00
2019-04-26T19:52:25.111Z,0.00
2019-04-26T19:53:25.120Z,0.00
2019-04-26T19:54:32.547Z,0.00
2019-04-26T19:55:25.029Z,0.00
2019-04-26T19:56:27.636Z,0.00
2019-04-26T19:57:24.983Z,0.00
2019-04-26T19:58:24.945Z,0.00
2019-04-26T19:59:27.515Z,0.00
2019-04-26T20:00:24.889Z,0.00
2019-04-26T20:01:25.137Z,0.00
2019-04-26T20:02:26.878Z,0.00
2019-04-26T20:03:24.810Z,0.00
2019-04-26T20:04:30.771Z,0.00
2019-04-26T20:05:24.751Z,0.00
2019-04-26T20:06:26.819Z,0.00
2019-04-26T20:07:28.227Z,0.00
2019-04-26T20:08:24.684Z,0.00
2019-04-26T20:09:26.401Z,0.00
2019-04-26T20:10:24.621Z,0.00
2019-04-26T20:11:24.634Z,0.00
2019-04-26T20:12:25.302Z,0.00
2019-04-26T20:13:24.526Z,0.00
2019-04-26T20:14:39.322Z,0.00
2019-04-26T20:15:28.013Z,0.00
2019-04-26T20:16:26.005Z,0.00
2019-04-26T20:17:24.415Z,0.00
2019-04-26T20:18:24.392Z,0.00
2019-04-26T20:19:34.507Z,0.00
2019-04-26T20:20:27.798Z,0.00
2019-04-26T20:21:24.303Z,0.00
2019-04-26T20:22:28.796Z,0.00
2019-04-26T20:23:24.248Z,0.00
2019-04-26T20:24:24.222Z,0.00
2019-04-26T20:25:26.365Z,0.00
2019-04-26T20:26:24.185Z,0.00
2019-04-26T20:27:27.646Z,0.00
2019-04-26T20:28:24.110Z,0.00
2019-04-26T20:29:24.082Z,0.00
2019-04-26T20:30:27.577Z,0.00
2019-04-26T20:31:24.034Z,0.00
2019-04-26T20:32:24.082Z,0.00
2019-04-26T20:33:26.768Z,0.00
2019-04-26T20:34:23.947Z,0.00
2019-04-26T20:35:26.734Z,0.00
2019-04-26T20:36:23.888Z,0.00
2019-04-26T20:37:25.837Z,0.00
2019-04-26T20:38:23.831Z,0.00
2019-04-26T20:39:24.112Z,0.00
2019-04-26T20:40:25.595Z,0.00
2019-04-26T20:41:23.767Z,0.00
2019-04-26T20:42:23.725Z,0.00
2019-04-26T20:43:26.526Z,0.00
2019-04-26T20:44:28.301Z,0.00
2019-04-26T20:45:23.840Z,0.00
2019-04-26T20:46:25.134Z,0.00
2019-04-26T20:47:23.580Z,0.00
2019-04-26T20:48:25.600Z,0.00
2019-04-26T20:49:23.524Z,0.00
2019-04-26T20:50:23.496Z,0.00
2019-04-26T20:51:24.223Z,0.00
2019-04-26T20:52:24.982Z,0.00
2019-04-26T20:53:23.414Z,0.00
2019-04-26T20:54:23.385Z,0.00
2019-04-26T20:55:30.328Z,0.00
2019-04-26T20:56:23.330Z,0.00
2019-04-26T20:57:26.609Z,0.00
2019-04-26T20:58:23.275Z,0.00
2019-04-26T20:59:23.720Z,0.00
2019-04-26T21:00:23.219Z,0.00
2019-04-26T21:01:23.190Z,0.00
2019-04-26T21:02:24.769Z,0.00
2019-04-26T21:03:27.550Z,0.00
2019-04-26T21:04:35.007Z,0.00
2019-04-26T21:05:23.079Z,0.00
2019-04-26T21:06:23.050Z,0.00
2019-04-26T21:07:23.023Z,0.00
2019-04-26T21:08:25.734Z,0.00
2019-04-26T21:09:22.972Z,0.00
2019-04-26T21:10:25.675Z,0.00
2019-04-26T21:11:22.946Z,0.00
2019-04-26T21:12:22.886Z,0.00
2019-04-26T21:13:23.667Z,0.00
2019-04-26T21:14:22.829Z,0.00
2019-04-26T21:15:24.209Z,0.00
2019-04-26T21:16:22.770Z,0.00
2019-04-26T21:17:24.341Z,0.00
2019-04-26T21:18:23.006Z,0.00
2019-04-26T21:19:22.686Z,0.00
2019-04-26T21:20:22.660Z,0.00
2019-04-26T21:21:22.631Z,0.00
2019-04-26T21:22:28.430Z,0.00
2019-04-26T21:23:22.576Z,0.00
2019-04-26T21:24:23.625Z,0.00
2019-04-26T21:25:22.518Z,0.00
2019-04-26T21:26:22.491Z,0.00
2019-04-26T21:27:25.963Z,0.00
2019-04-26T21:28:22.435Z,0.00
2019-04-26T21:29:24.372Z,0.00
2019-04-26T21:30:22.381Z,0.00
2019-04-26T21:31:22.349Z,0.00
2019-04-26T21:32:24.554Z,0.00
2019-04-26T21:33:23.869Z,0.00
2019-04-26T21:34:22.267Z,0.00
2019-04-26T21:35:26.641Z,0.00
2019-04-26T21:36:22.882Z,0.00
2019-04-26T21:37:22.453Z,0.00
2019-04-26T21:38:25.564Z,0.00
2019-04-26T21:39:22.125Z,0.00
2019-04-26T21:40:25.081Z,0.00
2019-04-26T21:41:23.578Z,0.00
2019-04-26T21:42:24.244Z,0.00
2019-04-26T21:43:23.167Z,0.00
2019-04-26T21:44:21.986Z,0.00
2019-04-26T21:45:28.418Z,0.00
2019-04-26T21:46:22.976Z,0.00
2019-04-26T21:47:23.177Z,0.00
2019-04-26T21:48:23.508Z,0.00
2019-04-26T21:49:22.216Z,0.00
2019-04-26T21:50:21.821Z,0.00
2019-04-26T21:51:22.996Z,0.00
2019-04-26T21:52:27.566Z,0.00
2019-04-26T21:53:21.746Z,0.00
2019-04-26T21:54:21.707Z,0.00
2019-04-26T21:55:26.585Z,0.00
2019-04-26T21:56:23.324Z,0.00
2019-04-26T21:57:25.050Z,0.00
2019-04-26T21:58:21.599Z,0.00
2019-04-26T21:59:21.567Z,0.00
2019-04-26T22:00:22.724Z,0.00
2019-04-26T22:01:23.424Z,0.00
2019-04-26T22:02:21.481Z,0.00
2019-04-26T22:03:21.453Z,0.00
2019-04-26T22:04:22.761Z,0.00
2019-04-26T22:05:21.395Z,0.00
2019-04-26T22:06:26.909Z,0.00
2019-04-26T22:07:21.391Z,0.00
2019-04-26T22:08:24.559Z,0.00
2019-04-26T22:09:21.284Z,0.00
2019-04-26T22:10:21.262Z,0.00
2019-04-26T22:11:23.159Z,0.00
2019-04-26T22:12:21.201Z,0.00
2019-04-26T22:13:22.993Z,0.00
2019-04-26T22:14:21.628Z,0.00
2019-04-26T22:15:21.150Z,0.00
2019-04-26T22:16:31.948Z,0.00
2019-04-26T22:17:22.629Z,0.00
2019-04-26T22:19:03.871Z,0.00
2019-04-26T22:20:06.644Z,0.00
2019-04-26T22:21:03.565Z,0.00
2019-04-26T22:22:04.240Z,0.00
2019-04-26T22:23:03.311Z,0.00
2019-04-26T22:24:05.937Z,0.00
2019-04-26T22:25:03.887Z,0.00
2019-04-26T22:26:06.057Z,0.00
2019-04-26T22:27:03.841Z,0.00
2019-04-26T22:28:03.454Z,0.00
2019-04-26T22:29:03.818Z,0.00
2019-04-26T22:30:03.387Z,0.00
2019-04-26T22:31:06.832Z,0.00
2019-04-26T22:32:03.641Z,0.00
2019-04-26T22:33:03.197Z,0.00
2019-04-26T22:34:07.326Z,0.00
2019-04-26T22:35:03.272Z,0.00
2019-04-26T22:36:03.970Z,0.00
2019-04-26T22:37:11.079Z,0.00
2019-04-26T22:38:04.045Z,0.00
2019-04-26T22:39:04.624Z,0.00
2019-04-26T22:40:03.698Z,0.00
2019-04-26T22:41:03.197Z,0.00
2019-04-26T22:42:03.822Z,0.00
2019-04-26T22:43:02.867Z,0.00
2019-04-26T22:44:03.850Z,0.00
2019-04-26T22:45:09.114Z,0.00
2019-04-26T22:46:02.947Z,0.00
2019-04-26T22:47:03.494Z,0.00
2019-04-26T22:48:03.421Z,0.00
2019-04-26T22:49:05.771Z,0.00
2019-04-26T22:50:02.553Z,0.00
2019-04-26T22:51:04.487Z,0.00
2019-04-26T22:52:06.070Z,0.00
2019-04-26T22:53:04.043Z,0.00
2019-04-26T22:54:06.098Z,0.00
2019-04-26T22:55:04.081Z,0.00
2019-04-26T22:56:03.372Z,0.00
2019-04-26T22:57:03.943Z,0.00
2019-04-26T22:58:03.244Z,0.00
2019-04-26T22:59:05.189Z,0.00
2019-04-26T23:00:02.266Z,0.00
2019-04-26T23:01:03.459Z,0.00
2019-04-26T23:02:03.531Z,0.00
2019-04-26T23:03:05.466Z,0.00
2019-04-26T23:04:03.448Z,0.00
2019-04-26T23:05:05.545Z,0.00
2019-04-26T23:06:03.590Z,0.00
2019-04-26T23:07:03.433Z,0.00
2019-04-26T23:08:03.361Z,0.00
2019-04-26T23:09:02.014Z,0.00
2019-04-26T23:10:04.077Z,0.00
2019-04-26T23:11:02.479Z,0.00
2019-04-26T23:12:03.806Z,0.00
2019-04-26T23:13:04.592Z,0.00
2019-04-26T23:14:03.375Z,0.00
2019-04-26T23:15:03.293Z,0.00
2019-04-26T23:16:08.212Z,0.00
2019-04-26T23:17:06.387Z,0.00
2019-04-26T23:18:03.731Z,0.00
2019-04-26T23:19:01.733Z,0.00
2019-04-26T23:20:03.004Z,0.00
2019-04-26T23:21:03.431Z,0.00
2019-04-26T23:22:01.651Z,0.00
2019-04-26T23:23:06.828Z,0.00
2019-04-26T23:24:03.305Z,0.00
2019-04-26T23:25:03.160Z,0.00
2019-04-26T23:26:02.348Z,0.00
2019-04-26T23:27:01.512Z,0.00
2019-04-26T23:28:01.482Z,0.00
2019-04-26T23:29:01.455Z,0.00
2019-04-26T23:30:01.426Z,0.00
2019-04-26T23:31:07.719Z,0.00
2019-04-26T23:32:03.490Z,0.00
2019-04-26T23:33:01.342Z,0.00
2019-04-26T23:34:02.942Z,0.00
2019-04-26T23:35:02.915Z,0.00
2019-04-26T23:36:01.263Z,0.00
2019-04-26T23:37:03.097Z,0.00
2019-04-26T23:38:03.517Z,0.00
2019-04-26T23:39:02.983Z,0.00
2019-04-26T23:40:01.148Z,0.00
2019-04-26T23:41:06.839Z,0.00
2019-04-26T23:42:01.139Z,0.00
2019-04-26T23:43:02.728Z,0.00
2019-04-26T23:44:06.291Z,0.00
2019-04-26T23:45:01.007Z,0.00
2019-04-26T23:46:00.977Z,0.00
2019-04-26T23:47:02.157Z,0.00
2019-04-26T23:48:00.971Z,0.00
2019-04-26T23:49:00.894Z,0.00
2019-04-26T23:50:00.866Z,0.00
2019-04-26T23:51:04.926Z,0.00
2019-04-26T23:52:00.813Z,0.00
2019-04-26T23:53:00.775Z,0.00
2019-04-26T23:54:00.748Z,0.00
2019-04-26T23:55:07.251Z,0.00
2019-04-26T23:56:00.693Z,0.00
2019-04-26T23:57:00.664Z,0.00
2019-04-26T23:58:00.635Z,0.00
2019-04-26T23:59:00.608Z,0.00
